sensor_id;sensor_type;location;lat;lon;timestamp;P1;durP1;ratioP1;P2;durP2;ratioP2
8001;SDS011;4046;48.774;8.732;2023-07-13T00:00:03;1.60;;;1.50;;
8001;SDS011;4046;48.774;8.732;2023-07-13T00:02:34;1.53;;;1.43;;
8001;SDS011;4046;48.774;8.732;2023-07-13T00:05:00;2.63;;;1.60;;
8001;SDS011;4046;48.774;8.732;2023-07-13T00:07:26;2.70;;;1.43;;
8001;SDS011;4046;48.774;8.732;2023-07-13T00:09:52;1.60;;;1.40;;
8001;SDS011;4046;48.774;8.732;2023-07-13T00:12:28;1.30;;;1.10;;
8001;SDS011;4046;48.774;8.732;2023-07-13T00:14:56;1.37;;;1.27;;
8001;SDS011;4046;48.774;8.732;2023-07-13T00:17:23;1.47;;;1.37;;
8001;SDS011;4046;48.774;8.732;2023-07-13T00:19:49;1.60;;;1.37;;
8001;SDS011;4046;48.774;8.732;2023-07-13T00:22:15;1.30;;;1.17;;
8001;SDS011;4046;48.774;8.732;2023-07-13T00:24:43;1.73;;;1.40;;
8001;SDS011;4046;48.774;8.732;2023-07-13T00:27:09;1.33;;;1.23;;
8001;SDS011;4046;48.774;8.732;2023-07-13T00:29:36;1.30;;;1.10;;
8001;SDS011;4046;48.774;8.732;2023-07-13T00:32:05;1.40;;;1.20;;
8001;SDS011;4046;48.774;8.732;2023-07-13T00:34:32;1.43;;;1.33;;
8001;SDS011;4046;48.774;8.732;2023-07-13T00:36:58;1.30;;;1.00;;
8001;SDS011;4046;48.774;8.732;2023-07-13T00:39:24;1.50;;;1.40;;
8001;SDS011;4046;48.774;8.732;2023-07-13T00:41:50;2.23;;;1.33;;
8001;SDS011;4046;48.774;8.732;2023-07-13T00:44:20;1.50;;;1.20;;
8001;SDS011;4046;48.774;8.732;2023-07-13T00:46:48;1.43;;;1.33;;
8001;SDS011;4046;48.774;8.732;2023-07-13T00:49:16;1.40;;;1.00;;
8001;SDS011;4046;48.774;8.732;2023-07-13T00:51:47;1.47;;;1.37;;
8001;SDS011;4046;48.774;8.732;2023-07-13T00:54:18;1.50;;;1.20;;
8001;SDS011;4046;48.774;8.732;2023-07-13T00:56:50;1.30;;;1.20;;
8001;SDS011;4046;48.774;8.732;2023-07-13T00:59:18;1.40;;;1.30;;
8001;SDS011;4046;48.774;8.732;2023-07-13T01:01:46;2.03;;;1.43;;
8001;SDS011;4046;48.774;8.732;2023-07-13T01:04:13;1.57;;;1.30;;
8001;SDS011;4046;48.774;8.732;2023-07-13T01:06:39;1.40;;;1.30;;
8001;SDS011;4046;48.774;8.732;2023-07-13T01:09:06;2.07;;;1.20;;
8001;SDS011;4046;48.774;8.732;2023-07-13T01:11:33;1.70;;;1.40;;
8001;SDS011;4046;48.774;8.732;2023-07-13T01:14:00;1.70;;;1.33;;
8001;SDS011;4046;48.774;8.732;2023-07-13T01:16:30;1.80;;;1.30;;
8001;SDS011;4046;48.774;8.732;2023-07-13T01:18:58;1.30;;;1.20;;
8001;SDS011;4046;48.774;8.732;2023-07-13T01:21:27;2.23;;;1.30;;
8001;SDS011;4046;48.774;8.732;2023-07-13T01:23:54;1.30;;;1.13;;
8001;SDS011;4046;48.774;8.732;2023-07-13T01:26:20;1.70;;;1.10;;
8001;SDS011;4046;48.774;8.732;2023-07-13T01:28:46;1.40;;;1.30;;
8001;SDS011;4046;48.774;8.732;2023-07-13T01:31:12;1.40;;;1.30;;
8001;SDS011;4046;48.774;8.732;2023-07-13T01:33:38;1.93;;;1.50;;
8001;SDS011;4046;48.774;8.732;2023-07-13T01:36:05;1.50;;;1.10;;
8001;SDS011;4046;48.774;8.732;2023-07-13T01:38:32;1.30;;;1.20;;
8001;SDS011;4046;48.774;8.732;2023-07-13T01:40:58;2.13;;;1.20;;
8001;SDS011;4046;48.774;8.732;2023-07-13T01:43:24;3.20;;;1.23;;
8001;SDS011;4046;48.774;8.732;2023-07-13T01:45:50;1.90;;;1.20;;
8001;SDS011;4046;48.774;8.732;2023-07-13T01:48:16;1.50;;;1.17;;
8001;SDS011;4046;48.774;8.732;2023-07-13T01:50:42;1.30;;;1.20;;
8001;SDS011;4046;48.774;8.732;2023-07-13T01:53:08;2.00;;;1.33;;
8001;SDS011;4046;48.774;8.732;2023-07-13T01:55:34;1.20;;;1.10;;
8001;SDS011;4046;48.774;8.732;2023-07-13T01:58:01;1.43;;;1.33;;
8001;SDS011;4046;48.774;8.732;2023-07-13T02:00:27;1.30;;;1.00;;
8001;SDS011;4046;48.774;8.732;2023-07-13T02:02:52;1.70;;;1.20;;
8001;SDS011;4046;48.774;8.732;2023-07-13T02:05:18;1.30;;;1.00;;
8001;SDS011;4046;48.774;8.732;2023-07-13T02:07:44;1.40;;;1.20;;
8001;SDS011;4046;48.774;8.732;2023-07-13T02:10:11;2.00;;;1.23;;
8001;SDS011;4046;48.774;8.732;2023-07-13T02:12:37;1.40;;;1.13;;
8001;SDS011;4046;48.774;8.732;2023-07-13T02:15:03;1.27;;;0.97;;
8001;SDS011;4046;48.774;8.732;2023-07-13T02:17:30;1.40;;;1.27;;
8001;SDS011;4046;48.774;8.732;2023-07-13T02:19:57;1.40;;;1.10;;
8001;SDS011;4046;48.774;8.732;2023-07-13T02:22:23;1.30;;;1.07;;
8001;SDS011;4046;48.774;8.732;2023-07-13T02:24:49;1.70;;;1.30;;
8001;SDS011;4046;48.774;8.732;2023-07-13T02:27:15;1.43;;;1.20;;
8001;SDS011;4046;48.774;8.732;2023-07-13T02:29:41;1.90;;;1.10;;
8001;SDS011;4046;48.774;8.732;2023-07-13T02:32:07;1.60;;;1.23;;
8001;SDS011;4046;48.774;8.732;2023-07-13T02:34:33;3.60;;;1.23;;
8001;SDS011;4046;48.774;8.732;2023-07-13T02:36:59;1.70;;;1.40;;
8001;SDS011;4046;48.774;8.732;2023-07-13T02:39:25;1.80;;;1.20;;
8001;SDS011;4046;48.774;8.732;2023-07-13T02:41:51;2.00;;;1.30;;
8001;SDS011;4046;48.774;8.732;2023-07-13T02:44:16;1.40;;;1.27;;
8001;SDS011;4046;48.774;8.732;2023-07-13T02:46:42;1.90;;;1.17;;
8001;SDS011;4046;48.774;8.732;2023-07-13T02:49:08;1.50;;;1.20;;
8001;SDS011;4046;48.774;8.732;2023-07-13T02:51:33;1.30;;;1.13;;
8001;SDS011;4046;48.774;8.732;2023-07-13T02:54:00;4.50;;;1.53;;
8001;SDS011;4046;48.774;8.732;2023-07-13T02:56:28;1.70;;;1.20;;
8001;SDS011;4046;48.774;8.732;2023-07-13T02:58:55;1.67;;;1.10;;
8001;SDS011;4046;48.774;8.732;2023-07-13T03:01:21;1.50;;;1.30;;
8001;SDS011;4046;48.774;8.732;2023-07-13T03:03:48;2.17;;;1.30;;
8001;SDS011;4046;48.774;8.732;2023-07-13T03:06:14;1.93;;;1.30;;
8001;SDS011;4046;48.774;8.732;2023-07-13T03:08:41;1.33;;;1.03;;
8001;SDS011;4046;48.774;8.732;2023-07-13T03:11:08;1.73;;;1.10;;
8001;SDS011;4046;48.774;8.732;2023-07-13T03:13:36;1.60;;;1.13;;
8001;SDS011;4046;48.774;8.732;2023-07-13T03:16:03;2.43;;;1.40;;
8001;SDS011;4046;48.774;8.732;2023-07-13T03:18:29;1.77;;;1.20;;
8001;SDS011;4046;48.774;8.732;2023-07-13T03:20:55;1.40;;;1.00;;
8001;SDS011;4046;48.774;8.732;2023-07-13T03:23:21;1.30;;;1.13;;
8001;SDS011;4046;48.774;8.732;2023-07-13T03:25:47;2.27;;;1.20;;
8001;SDS011;4046;48.774;8.732;2023-07-13T03:28:13;1.30;;;1.20;;
8001;SDS011;4046;48.774;8.732;2023-07-13T03:30:39;1.53;;;1.20;;
8001;SDS011;4046;48.774;8.732;2023-07-13T03:33:05;1.70;;;1.37;;
8001;SDS011;4046;48.774;8.732;2023-07-13T03:35:31;1.97;;;1.20;;
8001;SDS011;4046;48.774;8.732;2023-07-13T03:37:58;1.43;;;1.20;;
8001;SDS011;4046;48.774;8.732;2023-07-13T03:40:25;1.40;;;1.00;;
8001;SDS011;4046;48.774;8.732;2023-07-13T03:42:52;1.47;;;1.37;;
8001;SDS011;4046;48.774;8.732;2023-07-13T03:45:18;1.40;;;1.27;;
8001;SDS011;4046;48.774;8.732;2023-07-13T03:47:44;2.10;;;1.07;;
8001;SDS011;4046;48.774;8.732;2023-07-13T03:50:10;1.40;;;1.20;;
8001;SDS011;4046;48.774;8.732;2023-07-13T03:52:36;2.23;;;1.73;;
8001;SDS011;4046;48.774;8.732;2023-07-13T03:55:02;1.60;;;1.27;;
8001;SDS011;4046;48.774;8.732;2023-07-13T03:57:28;1.70;;;1.30;;
8001;SDS011;4046;48.774;8.732;2023-07-13T03:59:54;1.87;;;1.70;;
8001;SDS011;4046;48.774;8.732;2023-07-13T04:02:19;1.30;;;1.10;;
8001;SDS011;4046;48.774;8.732;2023-07-13T04:04:45;1.70;;;1.50;;
8001;SDS011;4046;48.774;8.732;2023-07-13T04:07:11;1.50;;;1.20;;
8001;SDS011;4046;48.774;8.732;2023-07-13T04:09:37;1.50;;;1.17;;
8001;SDS011;4046;48.774;8.732;2023-07-13T04:12:03;1.93;;;1.10;;
8001;SDS011;4046;48.774;8.732;2023-07-13T04:14:29;1.40;;;1.30;;
8001;SDS011;4046;48.774;8.732;2023-07-13T04:16:55;1.80;;;1.23;;
8001;SDS011;4046;48.774;8.732;2023-07-13T04:19:20;1.40;;;1.30;;
8001;SDS011;4046;48.774;8.732;2023-07-13T04:21:46;1.93;;;1.10;;
8001;SDS011;4046;48.774;8.732;2023-07-13T04:24:12;1.57;;;1.47;;
8001;SDS011;4046;48.774;8.732;2023-07-13T04:26:38;1.30;;;1.20;;
8001;SDS011;4046;48.774;8.732;2023-07-13T04:29:05;3.40;;;1.20;;
8001;SDS011;4046;48.774;8.732;2023-07-13T04:31:32;1.20;;;1.00;;
8001;SDS011;4046;48.774;8.732;2023-07-13T04:33:58;1.30;;;1.10;;
8001;SDS011;4046;48.774;8.732;2023-07-13T04:36:25;1.93;;;1.40;;
8001;SDS011;4046;48.774;8.732;2023-07-13T04:38:53;2.03;;;1.33;;
8001;SDS011;4046;48.774;8.732;2023-07-13T04:41:19;2.03;;;1.20;;
8001;SDS011;4046;48.774;8.732;2023-07-13T04:43:46;1.40;;;1.30;;
8001;SDS011;4046;48.774;8.732;2023-07-13T04:46:17;1.50;;;1.40;;
8001;SDS011;4046;48.774;8.732;2023-07-13T04:48:44;1.43;;;1.30;;
8001;SDS011;4046;48.774;8.732;2023-07-13T04:51:10;1.33;;;1.23;;
8001;SDS011;4046;48.774;8.732;2023-07-13T04:53:36;2.03;;;1.43;;
8001;SDS011;4046;48.774;8.732;2023-07-13T04:56:02;1.40;;;1.23;;
8001;SDS011;4046;48.774;8.732;2023-07-13T04:58:28;1.70;;;1.37;;
8001;SDS011;4046;48.774;8.732;2023-07-13T05:00:59;1.37;;;1.23;;
8001;SDS011;4046;48.774;8.732;2023-07-13T05:03:26;1.70;;;1.33;;
8001;SDS011;4046;48.774;8.732;2023-07-13T05:05:56;1.40;;;1.10;;
8001;SDS011;4046;48.774;8.732;2023-07-13T05:08:22;1.73;;;1.37;;
8001;SDS011;4046;48.774;8.732;2023-07-13T05:10:48;1.60;;;1.20;;
8001;SDS011;4046;48.774;8.732;2023-07-13T05:13:14;1.60;;;1.10;;
8001;SDS011;4046;48.774;8.732;2023-07-13T05:15:40;1.57;;;1.17;;
8001;SDS011;4046;48.774;8.732;2023-07-13T05:18:06;1.30;;;1.17;;
8001;SDS011;4046;48.774;8.732;2023-07-13T05:20:31;1.20;;;1.10;;
8001;SDS011;4046;48.774;8.732;2023-07-13T05:22:57;1.50;;;1.30;;
8001;SDS011;4046;48.774;8.732;2023-07-13T05:25:23;1.40;;;1.10;;
8001;SDS011;4046;48.774;8.732;2023-07-13T05:27:48;1.97;;;1.50;;
8001;SDS011;4046;48.774;8.732;2023-07-13T05:30:14;1.40;;;1.30;;
8001;SDS011;4046;48.774;8.732;2023-07-13T05:32:40;1.70;;;1.37;;
8001;SDS011;4046;48.774;8.732;2023-07-13T05:35:06;1.60;;;1.30;;
8001;SDS011;4046;48.774;8.732;2023-07-13T05:37:32;1.30;;;1.20;;
8001;SDS011;4046;48.774;8.732;2023-07-13T05:39:58;1.40;;;1.07;;
8001;SDS011;4046;48.774;8.732;2023-07-13T05:42:24;1.40;;;1.10;;
8001;SDS011;4046;48.774;8.732;2023-07-13T05:44:50;1.40;;;1.10;;
8001;SDS011;4046;48.774;8.732;2023-07-13T05:47:16;1.50;;;1.07;;
8001;SDS011;4046;48.774;8.732;2023-07-13T05:49:41;1.60;;;1.20;;
8001;SDS011;4046;48.774;8.732;2023-07-13T05:52:07;1.50;;;1.40;;
8001;SDS011;4046;48.774;8.732;2023-07-13T05:54:33;1.47;;;1.10;;
8001;SDS011;4046;48.774;8.732;2023-07-13T05:56:59;1.57;;;1.30;;
8001;SDS011;4046;48.774;8.732;2023-07-13T05:59:24;1.30;;;1.20;;
8001;SDS011;4046;48.774;8.732;2023-07-13T06:01:50;1.70;;;1.30;;
8001;SDS011;4046;48.774;8.732;2023-07-13T06:04:17;1.40;;;1.30;;
8001;SDS011;4046;48.774;8.732;2023-07-13T06:06:44;2.13;;;1.10;;
8001;SDS011;4046;48.774;8.732;2023-07-13T06:09:10;1.60;;;1.30;;
8001;SDS011;4046;48.774;8.732;2023-07-13T06:11:36;1.60;;;1.50;;
8001;SDS011;4046;48.774;8.732;2023-07-13T06:14:01;2.17;;;1.30;;
8001;SDS011;4046;48.774;8.732;2023-07-13T06:16:29;2.70;;;1.30;;
8001;SDS011;4046;48.774;8.732;2023-07-13T06:18:54;1.30;;;1.10;;
8001;SDS011;4046;48.774;8.732;2023-07-13T06:21:21;1.40;;;1.30;;
8001;SDS011;4046;48.774;8.732;2023-07-13T06:23:49;1.33;;;1.10;;
8001;SDS011;4046;48.774;8.732;2023-07-13T06:26:16;1.80;;;1.40;;
8001;SDS011;4046;48.774;8.732;2023-07-13T06:28:43;1.60;;;1.30;;
8001;SDS011;4046;48.774;8.732;2023-07-13T06:31:10;1.37;;;1.27;;
8001;SDS011;4046;48.774;8.732;2023-07-13T06:33:37;1.70;;;1.33;;
8001;SDS011;4046;48.774;8.732;2023-07-13T06:36:04;1.50;;;1.40;;
8001;SDS011;4046;48.774;8.732;2023-07-13T06:38:31;1.40;;;1.13;;
8001;SDS011;4046;48.774;8.732;2023-07-13T06:40:57;1.53;;;1.10;;
8001;SDS011;4046;48.774;8.732;2023-07-13T06:43:23;1.40;;;1.30;;
8001;SDS011;4046;48.774;8.732;2023-07-13T06:45:50;1.30;;;1.20;;
8001;SDS011;4046;48.774;8.732;2023-07-13T06:48:17;1.43;;;1.23;;
8001;SDS011;4046;48.774;8.732;2023-07-13T06:50:44;1.60;;;1.30;;
8001;SDS011;4046;48.774;8.732;2023-07-13T06:53:10;2.03;;;1.23;;
8001;SDS011;4046;48.774;8.732;2023-07-13T06:55:37;1.63;;;1.20;;
8001;SDS011;4046;48.774;8.732;2023-07-13T06:58:04;1.87;;;1.33;;
8001;SDS011;4046;48.774;8.732;2023-07-13T07:00:30;2.43;;;1.27;;
8001;SDS011;4046;48.774;8.732;2023-07-13T07:02:58;1.60;;;1.20;;
8001;SDS011;4046;48.774;8.732;2023-07-13T07:05:24;1.70;;;1.43;;
8001;SDS011;4046;48.774;8.732;2023-07-13T07:07:51;2.27;;;1.20;;
8001;SDS011;4046;48.774;8.732;2023-07-13T07:10:18;2.37;;;1.30;;
8001;SDS011;4046;48.774;8.732;2023-07-13T07:12:44;1.50;;;1.20;;
8001;SDS011;4046;48.774;8.732;2023-07-13T07:15:10;1.30;;;1.20;;
8001;SDS011;4046;48.774;8.732;2023-07-13T07:17:36;2.17;;;1.57;;
8001;SDS011;4046;48.774;8.732;2023-07-13T07:20:02;2.07;;;1.27;;
8001;SDS011;4046;48.774;8.732;2023-07-13T07:22:29;1.43;;;1.20;;
8001;SDS011;4046;48.774;8.732;2023-07-13T07:24:55;1.30;;;1.20;;
8001;SDS011;4046;48.774;8.732;2023-07-13T07:27:22;1.60;;;1.30;;
8001;SDS011;4046;48.774;8.732;2023-07-13T07:29:48;1.50;;;1.37;;
8001;SDS011;4046;48.774;8.732;2023-07-13T07:32:14;1.50;;;1.20;;
8001;SDS011;4046;48.774;8.732;2023-07-13T07:34:40;1.50;;;1.37;;
8001;SDS011;4046;48.774;8.732;2023-07-13T07:37:06;1.60;;;1.40;;
8001;SDS011;4046;48.774;8.732;2023-07-13T07:39:31;1.93;;;1.37;;
8001;SDS011;4046;48.774;8.732;2023-07-13T07:41:58;1.50;;;1.20;;
8001;SDS011;4046;48.774;8.732;2023-07-13T07:44:23;2.43;;;1.43;;
8001;SDS011;4046;48.774;8.732;2023-07-13T07:46:50;2.43;;;1.37;;
8001;SDS011;4046;48.774;8.732;2023-07-13T07:49:16;1.50;;;1.40;;
8001;SDS011;4046;48.774;8.732;2023-07-13T07:51:41;1.90;;;1.40;;
8001;SDS011;4046;48.774;8.732;2023-07-13T07:54:07;5.33;;;1.30;;
8001;SDS011;4046;48.774;8.732;2023-07-13T07:56:33;1.43;;;1.30;;
8001;SDS011;4046;48.774;8.732;2023-07-13T07:58:59;3.40;;;1.27;;
8001;SDS011;4046;48.774;8.732;2023-07-13T08:01:25;1.37;;;1.03;;
8001;SDS011;4046;48.774;8.732;2023-07-13T08:03:51;1.40;;;1.20;;
8001;SDS011;4046;48.774;8.732;2023-07-13T08:06:17;2.27;;;1.40;;
8001;SDS011;4046;48.774;8.732;2023-07-13T08:08:45;1.70;;;1.20;;
8001;SDS011;4046;48.774;8.732;2023-07-13T08:11:10;1.40;;;1.30;;
8001;SDS011;4046;48.774;8.732;2023-07-13T08:13:37;1.97;;;1.30;;
8001;SDS011;4046;48.774;8.732;2023-07-13T08:16:06;1.60;;;1.50;;
8001;SDS011;4046;48.774;8.732;2023-07-13T08:18:32;1.30;;;1.10;;
8001;SDS011;4046;48.774;8.732;2023-07-13T08:21:02;1.30;;;1.10;;
8001;SDS011;4046;48.774;8.732;2023-07-13T08:23:29;1.30;;;1.10;;
8001;SDS011;4046;48.774;8.732;2023-07-13T08:25:55;1.53;;;1.17;;
8001;SDS011;4046;48.774;8.732;2023-07-13T08:28:22;1.30;;;1.10;;
8001;SDS011;4046;48.774;8.732;2023-07-13T08:30:47;1.30;;;1.17;;
8001;SDS011;4046;48.774;8.732;2023-07-13T08:33:15;1.40;;;1.23;;
8001;SDS011;4046;48.774;8.732;2023-07-13T08:35:41;1.30;;;1.17;;
8001;SDS011;4046;48.774;8.732;2023-07-13T08:38:07;1.50;;;1.20;;
8001;SDS011;4046;48.774;8.732;2023-07-13T08:40:33;1.40;;;1.17;;
8001;SDS011;4046;48.774;8.732;2023-07-13T08:42:59;1.53;;;1.20;;
8001;SDS011;4046;48.774;8.732;2023-07-13T08:48:01;1.67;;;1.13;;
8001;SDS011;4046;48.774;8.732;2023-07-13T08:50:39;2.33;;;1.30;;
8001;SDS011;4046;48.774;8.732;2023-07-13T08:53:16;1.50;;;1.10;;
8001;SDS011;4046;48.774;8.732;2023-07-13T08:55:43;1.40;;;0.90;;
8001;SDS011;4046;48.774;8.732;2023-07-13T08:58:14;1.60;;;1.03;;
8001;SDS011;4046;48.774;8.732;2023-07-13T09:00:50;1.40;;;1.30;;
8001;SDS011;4046;48.774;8.732;2023-07-13T09:03:26;1.63;;;1.20;;
8001;SDS011;4046;48.774;8.732;2023-07-13T09:06:03;1.30;;;1.10;;
8001;SDS011;4046;48.774;8.732;2023-07-13T09:13:43;2.03;;;1.30;;
8001;SDS011;4046;48.774;8.732;2023-07-13T09:16:19;2.50;;;1.20;;
8001;SDS011;4046;48.774;8.732;2023-07-13T09:18:53;1.77;;;1.20;;
8001;SDS011;4046;48.774;8.732;2023-07-13T09:21:25;2.27;;;1.23;;
8001;SDS011;4046;48.774;8.732;2023-07-13T09:26:53;2.27;;;1.50;;
8001;SDS011;4046;48.774;8.732;2023-07-13T09:29:33;1.53;;;1.30;;
8001;SDS011;4046;48.774;8.732;2023-07-13T09:32:03;1.60;;;1.10;;
8001;SDS011;4046;48.774;8.732;2023-07-13T09:34:33;1.50;;;1.40;;
8001;SDS011;4046;48.774;8.732;2023-07-13T09:36:59;2.70;;;1.47;;
8001;SDS011;4046;48.774;8.732;2023-07-13T09:39:26;1.63;;;1.27;;
8001;SDS011;4046;48.774;8.732;2023-07-13T09:42:28;2.73;;;1.27;;
8001;SDS011;4046;48.774;8.732;2023-07-13T09:44:55;1.77;;;1.20;;
8001;SDS011;4046;48.774;8.732;2023-07-13T09:47:26;1.53;;;1.10;;
8001;SDS011;4046;48.774;8.732;2023-07-13T09:49:56;3.53;;;1.07;;
8001;SDS011;4046;48.774;8.732;2023-07-13T09:52:24;2.10;;;1.50;;
8001;SDS011;4046;48.774;8.732;2023-07-13T09:54:51;1.63;;;1.30;;
8001;SDS011;4046;48.774;8.732;2023-07-13T09:57:24;1.87;;;1.20;;
8001;SDS011;4046;48.774;8.732;2023-07-13T09:59:52;1.50;;;1.23;;
8001;SDS011;4046;48.774;8.732;2023-07-13T10:04:53;1.83;;;1.20;;
8001;SDS011;4046;48.774;8.732;2023-07-13T10:07:42;2.00;;;1.20;;
8001;SDS011;4046;48.774;8.732;2023-07-13T10:10:20;1.30;;;1.10;;
8001;SDS011;4046;48.774;8.732;2023-07-13T10:12:48;3.20;;;1.60;;
8001;SDS011;4046;48.774;8.732;2023-07-13T10:15:17;4.13;;;1.70;;
8001;SDS011;4046;48.774;8.732;2023-07-13T10:17:45;1.97;;;1.10;;
8001;SDS011;4046;48.774;8.732;2023-07-13T10:20:12;2.07;;;1.40;;
8001;SDS011;4046;48.774;8.732;2023-07-13T10:25:19;5.87;;;1.40;;
8001;SDS011;4046;48.774;8.732;2023-07-13T10:27:47;4.27;;;1.60;;
8001;SDS011;4046;48.774;8.732;2023-07-13T10:30:20;4.17;;;1.80;;
8001;SDS011;4046;48.774;8.732;2023-07-13T10:32:50;6.23;;;1.50;;
8001;SDS011;4046;48.774;8.732;2023-07-13T10:35:18;3.93;;;1.40;;
8001;SDS011;4046;48.774;8.732;2023-07-13T10:37:55;3.00;;;1.47;;
8001;SDS011;4046;48.774;8.732;2023-07-13T10:40:33;1.73;;;1.30;;
8001;SDS011;4046;48.774;8.732;2023-07-13T10:43:06;1.70;;;1.40;;
8001;SDS011;4046;48.774;8.732;2023-07-13T10:45:40;2.57;;;1.40;;
8001;SDS011;4046;48.774;8.732;2023-07-13T10:48:07;2.03;;;1.10;;
8001;SDS011;4046;48.774;8.732;2023-07-13T10:50:37;3.50;;;1.30;;
8001;SDS011;4046;48.774;8.732;2023-07-13T10:58:42;2.60;;;1.30;;
8001;SDS011;4046;48.774;8.732;2023-07-13T11:01:09;3.73;;;1.40;;
8001;SDS011;4046;48.774;8.732;2023-07-13T11:15:00;1.40;;;1.20;;
8001;SDS011;4046;48.774;8.732;2023-07-13T11:16:54;1.83;;;1.40;;
8001;SDS011;4046;48.774;8.732;2023-07-13T11:24:29;2.40;;;1.50;;
8001;SDS011;4046;48.774;8.732;2023-07-13T11:27:21;2.53;;;1.70;;
8001;SDS011;4046;48.774;8.732;2023-07-13T11:33:04;3.93;;;1.20;;
8001;SDS011;4046;48.774;8.732;2023-07-13T11:38:38;2.73;;;1.73;;
8001;SDS011;4046;48.774;8.732;2023-07-13T11:43:42;4.20;;;2.43;;
8001;SDS011;4046;48.774;8.732;2023-07-13T11:46:24;3.47;;;3.10;;
8001;SDS011;4046;48.774;8.732;2023-07-13T11:48:52;7.50;;;3.80;;
8001;SDS011;4046;48.774;8.732;2023-07-13T11:51:22;4.93;;;3.67;;
8001;SDS011;4046;48.774;8.732;2023-07-13T11:53:54;5.30;;;3.80;;
8001;SDS011;4046;48.774;8.732;2023-07-13T11:56:24;5.60;;;4.03;;
8001;SDS011;4046;48.774;8.732;2023-07-13T11:58:51;6.30;;;4.90;;
8001;SDS011;4046;48.774;8.732;2023-07-13T12:01:27;5.93;;;4.80;;
8001;SDS011;4046;48.774;8.732;2023-07-13T12:04:01;8.77;;;4.63;;
8001;SDS011;4046;48.774;8.732;2023-07-13T12:06:29;6.20;;;5.27;;
8001;SDS011;4046;48.774;8.732;2023-07-13T12:08:57;6.30;;;4.57;;
8001;SDS011;4046;48.774;8.732;2023-07-13T12:11:24;8.90;;;5.73;;
8001;SDS011;4046;48.774;8.732;2023-07-13T12:13:50;7.43;;;4.90;;
8001;SDS011;4046;48.774;8.732;2023-07-13T12:18:48;7.00;;;5.13;;
8001;SDS011;4046;48.774;8.732;2023-07-13T12:21:16;6.50;;;4.93;;
8001;SDS011;4046;48.774;8.732;2023-07-13T12:23:44;5.73;;;4.97;;
8001;SDS011;4046;48.774;8.732;2023-07-13T12:26:13;9.50;;;5.30;;
8001;SDS011;4046;48.774;8.732;2023-07-13T12:28:48;7.63;;;4.97;;
8001;SDS011;4046;48.774;8.732;2023-07-13T12:34:05;6.07;;;4.87;;
8001;SDS011;4046;48.774;8.732;2023-07-13T12:36:34;6.07;;;4.97;;
8001;SDS011;4046;48.774;8.732;2023-07-13T12:41:42;7.70;;;4.80;;
8001;SDS011;4046;48.774;8.732;2023-07-13T12:44:43;6.80;;;4.37;;
8001;SDS011;4046;48.774;8.732;2023-07-13T12:47:06;5.83;;;4.33;;
8001;SDS011;4046;48.774;8.732;2023-07-13T12:49:40;7.17;;;4.63;;
8001;SDS011;4046;48.774;8.732;2023-07-13T12:52:15;5.47;;;3.87;;
8001;SDS011;4046;48.774;8.732;2023-07-13T12:54:52;4.20;;;3.80;;
8001;SDS011;4046;48.774;8.732;2023-07-13T12:57:22;5.53;;;4.20;;
8001;SDS011;4046;48.774;8.732;2023-07-13T12:59:51;5.83;;;4.27;;
8001;SDS011;4046;48.774;8.732;2023-07-13T13:02:30;4.07;;;3.60;;
8001;SDS011;4046;48.774;8.732;2023-07-13T13:05:00;4.00;;;3.70;;
8001;SDS011;4046;48.774;8.732;2023-07-13T13:07:28;4.30;;;3.70;;
8001;SDS011;4046;48.774;8.732;2023-07-13T13:09:54;5.73;;;3.57;;
8001;SDS011;4046;48.774;8.732;2023-07-13T13:12:21;4.77;;;3.67;;
8001;SDS011;4046;48.774;8.732;2023-07-13T13:14:49;5.13;;;3.90;;
8001;SDS011;4046;48.774;8.732;2023-07-13T13:17:22;3.90;;;3.50;;
8001;SDS011;4046;48.774;8.732;2023-07-13T13:19:52;6.10;;;3.80;;
8001;SDS011;4046;48.774;8.732;2023-07-13T13:22:19;5.20;;;3.60;;
8001;SDS011;4046;48.774;8.732;2023-07-13T13:24:46;4.70;;;3.20;;
8001;SDS011;4046;48.774;8.732;2023-07-13T13:27:19;5.87;;;3.80;;
8001;SDS011;4046;48.774;8.732;2023-07-13T13:29:49;3.47;;;3.10;;
8001;SDS011;4046;48.774;8.732;2023-07-13T13:32:17;3.50;;;3.00;;
8001;SDS011;4046;48.774;8.732;2023-07-13T13:34:44;3.63;;;2.90;;
8001;SDS011;4046;48.774;8.732;2023-07-13T13:37:18;4.47;;;3.20;;
8001;SDS011;4046;48.774;8.732;2023-07-13T13:39:46;4.00;;;3.30;;
8001;SDS011;4046;48.774;8.732;2023-07-13T13:42:12;6.60;;;3.17;;
8001;SDS011;4046;48.774;8.732;2023-07-13T13:44:39;3.63;;;2.80;;
8001;SDS011;4046;48.774;8.732;2023-07-13T13:47:22;4.50;;;3.17;;
8001;SDS011;4046;48.774;8.732;2023-07-13T13:49:55;4.13;;;3.00;;
8001;SDS011;4046;48.774;8.732;2023-07-13T13:52:21;4.07;;;2.73;;
8001;SDS011;4046;48.774;8.732;2023-07-13T13:54:47;4.10;;;2.90;;
8001;SDS011;4046;48.774;8.732;2023-07-13T13:57:14;4.30;;;3.70;;
8001;SDS011;4046;48.774;8.732;2023-07-13T13:59:39;7.97;;;4.60;;
8001;SDS011;4046;48.774;8.732;2023-07-13T14:02:38;8.80;;;5.27;;
8001;SDS011;4046;48.774;8.732;2023-07-13T14:05:01;9.50;;;6.97;;
8001;SDS011;4046;48.774;8.732;2023-07-13T14:07:28;9.70;;;6.53;;
8001;SDS011;4046;48.774;8.732;2023-07-13T14:09:58;10.50;;;7.33;;
8001;SDS011;4046;48.774;8.732;2023-07-13T14:12:26;13.13;;;7.50;;
8001;SDS011;4046;48.774;8.732;2023-07-13T14:14:54;12.10;;;7.33;;
8001;SDS011;4046;48.774;8.732;2023-07-13T14:17:24;12.93;;;7.90;;
8001;SDS011;4046;48.774;8.732;2023-07-13T14:19:52;18.53;;;9.17;;
8001;SDS011;4046;48.774;8.732;2023-07-13T14:22:22;10.43;;;8.97;;
8001;SDS011;4046;48.774;8.732;2023-07-13T14:24:53;11.33;;;8.60;;
8001;SDS011;4046;48.774;8.732;2023-07-13T14:27:19;11.90;;;8.93;;
8001;SDS011;4046;48.774;8.732;2023-07-13T14:29:45;14.20;;;8.80;;
8001;SDS011;4046;48.774;8.732;2023-07-13T14:32:12;11.33;;;7.93;;
8001;SDS011;4046;48.774;8.732;2023-07-13T14:34:38;11.20;;;7.73;;
8001;SDS011;4046;48.774;8.732;2023-07-13T14:37:04;9.00;;;7.60;;
8001;SDS011;4046;48.774;8.732;2023-07-13T14:39:35;13.93;;;8.70;;
8001;SDS011;4046;48.774;8.732;2023-07-13T14:42:01;11.90;;;7.60;;
8001;SDS011;4046;48.774;8.732;2023-07-13T14:44:29;12.17;;;8.20;;
8001;SDS011;4046;48.774;8.732;2023-07-13T14:47:00;10.37;;;7.73;;
8001;SDS011;4046;48.774;8.732;2023-07-13T14:49:42;9.43;;;7.10;;
8001;SDS011;4046;48.774;8.732;2023-07-13T14:52:12;12.50;;;8.03;;
8001;SDS011;4046;48.774;8.732;2023-07-13T14:54:44;9.00;;;7.80;;
8001;SDS011;4046;48.774;8.732;2023-07-13T14:57:14;9.50;;;7.53;;
8001;SDS011;4046;48.774;8.732;2023-07-13T14:59:41;7.87;;;6.53;;
8001;SDS011;4046;48.774;8.732;2023-07-13T15:02:22;9.00;;;7.00;;
8001;SDS011;4046;48.774;8.732;2023-07-13T15:04:55;9.80;;;6.87;;
8001;SDS011;4046;48.774;8.732;2023-07-13T15:07:20;9.30;;;7.17;;
8001;SDS011;4046;48.774;8.732;2023-07-13T15:09:48;8.27;;;6.20;;
8001;SDS011;4046;48.774;8.732;2023-07-13T15:12:14;7.77;;;6.37;;
8001;SDS011;4046;48.774;8.732;2023-07-13T15:14:40;10.23;;;7.40;;
8001;SDS011;4046;48.774;8.732;2023-07-13T15:17:40;11.33;;;7.10;;
8001;SDS011;4046;48.774;8.732;2023-07-13T15:20:17;9.60;;;6.80;;
8001;SDS011;4046;48.774;8.732;2023-07-13T15:22:51;7.73;;;5.83;;
8001;SDS011;4046;48.774;8.732;2023-07-13T15:25:21;7.50;;;5.60;;
8001;SDS011;4046;48.774;8.732;2023-07-13T15:27:52;10.30;;;5.83;;
8001;SDS011;4046;48.774;8.732;2023-07-13T15:30:19;8.90;;;6.30;;
8001;SDS011;4046;48.774;8.732;2023-07-13T15:32:45;8.17;;;6.57;;
8001;SDS011;4046;48.774;8.732;2023-07-13T15:35:15;7.40;;;6.00;;
8001;SDS011;4046;48.774;8.732;2023-07-13T15:37:43;6.77;;;5.97;;
8001;SDS011;4046;48.774;8.732;2023-07-13T15:40:10;6.87;;;6.00;;
8001;SDS011;4046;48.774;8.732;2023-07-13T15:42:37;7.10;;;5.30;;
8001;SDS011;4046;48.774;8.732;2023-07-13T15:45:13;7.23;;;5.30;;
8001;SDS011;4046;48.774;8.732;2023-07-13T15:47:41;6.57;;;5.70;;
8001;SDS011;4046;48.774;8.732;2023-07-13T15:50:11;7.00;;;5.70;;
8001;SDS011;4046;48.774;8.732;2023-07-13T15:52:49;8.50;;;4.87;;
8001;SDS011;4046;48.774;8.732;2023-07-13T15:55:17;5.60;;;5.10;;
8001;SDS011;4046;48.774;8.732;2023-07-13T15:57:46;5.63;;;4.60;;
8001;SDS011;4046;48.774;8.732;2023-07-13T16:00:16;5.83;;;4.77;;
8001;SDS011;4046;48.774;8.732;2023-07-13T16:02:46;4.70;;;4.27;;
8001;SDS011;4046;48.774;8.732;2023-07-13T16:05:13;5.10;;;4.50;;
8001;SDS011;4046;48.774;8.732;2023-07-13T16:07:41;6.50;;;4.93;;
8001;SDS011;4046;48.774;8.732;2023-07-13T16:10:48;5.37;;;4.87;;
8001;SDS011;4046;48.774;8.732;2023-07-13T16:13:16;7.97;;;5.03;;
8001;SDS011;4046;48.774;8.732;2023-07-13T16:15:46;5.20;;;4.70;;